Time;durP1;ratioP1;P1;durP2;ratioP2;P2;SDS_P1;SDS_P2;PMS_P1;PMS_P2;Temp;Humidity;BMP_temperature;BMP_pressure;BME280_temperature;BME280_humidity;BME280_pressure;Samples;Min_cycle;Max_cycle;Signal;HPM_P1;HPM_P2
2021/06/10 00:00:11;;;;;;;;;7.25;7.25;;;;;27.62;41.11;101815.44;5008842;28;45217;-47
2021/06/10 00:02:37;;;;;;;;;11.00;10.00;;;;;27.62;41.16;101818.19;5017743;28;45921;-47
2021/06/10 00:05:05;;;;;;;;;7.50;7.50;;;;;27.62;40.88;101820.09;5016400;28;45458;-46
2021/06/10 00:07:30;;;;;;;;;10.75;10.75;;;;;27.59;40.70;101816.69;5017849;28;45340;-49
2021/06/10 00:09:56;;;;;;;;;10.25;10.25;;;;;27.57;40.71;101821.53;5017390;28;45479;-50
2021/06/10 00:12:21;;;;;;;;;11.00;9.75;;;;;27.58;41.15;101816.84;5016219;28;47012;-45
2021/06/10 00:14:48;;;;;;;;;10.50;9.00;;;;;27.57;40.94;101813.25;5017789;28;45306;-46
2021/06/10 00:17:14;;;;;;;;;7.75;7.75;;;;;27.57;41.47;101823.41;5016618;28;45429;-48
2021/06/10 00:19:39;;;;;;;;;11.00;11.00;;;;;27.55;41.41;101809.81;5017731;28;45365;-47
2021/06/10 00:22:05;;;;;;;;;12.25;9.00;;;;;27.52;40.90;101807.44;5017620;28;45325;-45
2021/06/10 00:24:30;;;;;;;;;10.25;10.25;;;;;27.55;41.08;101808.94;5017200;28;45325;-48
2021/06/10 00:26:56;;;;;;;;;9.50;9.50;;;;;27.54;41.67;101810.00;5017643;28;45372;-45
2021/06/10 00:29:22;;;;;;;;;11.00;11.00;;;;;27.53;41.37;101816.56;5016216;28;45263;-49
2021/06/10 00:31:47;;;;;;;;;8.00;8.00;;;;;27.51;41.36;101815.91;5017122;28;45253;-48
2021/06/10 00:34:14;;;;;;;;;12.50;10.00;;;;;27.51;41.68;101818.66;5017416;28;45315;-47
2021/06/10 00:36:40;;;;;;;;;8.00;8.00;;;;;27.50;41.50;101822.47;5016152;28;45308;-48
2021/06/10 00:39:06;;;;;;;;;10.75;9.50;;;;;27.49;41.07;101817.97;5015760;28;45574;-46
2021/06/10 00:41:33;;;;;;;;;10.00;8.50;;;;;27.47;41.39;101817.31;5016993;28;45490;-45
2021/06/10 00:43:59;;;;;;;;;10.00;10.00;;;;;27.46;41.72;101816.47;5015031;28;45291;-48
2021/06/10 00:46:26;;;;;;;;;7.75;7.75;;;;;27.45;41.18;101823.03;5017314;28;45462;-47
2021/06/10 00:48:51;;;;;;;;;8.00;8.00;;;;;27.44;41.68;101816.59;5017142;28;45349;-45
2021/06/10 00:51:17;;;;;;;;;9.50;9.50;;;;;27.44;41.70;101819.34;5017093;28;45906;-47
2021/06/10 00:53:42;;;;;;;;;8.00;8.00;;;;;27.43;41.60;101814.88;5016666;28;45434;-44
2021/06/10 00:56:11;;;;;;;;;9.50;9.00;;;;;27.43;41.40;101820.41;5017338;28;45428;-45
2021/06/10 00:58:36;;;;;;;;;8.50;8.50;;;;;27.42;41.93;101820.59;5017292;28;45966;-46
2021/06/10 01:01:02;;;;;;;;;9.00;9.00;;;;;27.40;41.35;101815.25;5016173;28;46097;-47
2021/06/10 01:03:28;;;;;;;;;10.50;9.00;;;;;27.40;42.07;101812.50;4999058;28;45654;-45
2021/06/10 01:05:58;;;;;;;;;9.00;8.75;;;;;27.38;42.10;101809.09;5015701;28;45377;-49
2021/06/10 01:08:33;;;;;;;;;9.75;8.25;;;;;27.38;41.86;101817.38;5015157;28;45507;-46
2021/06/10 01:11:16;;;;;;;;;9.00;9.00;;;;;27.38;41.69;101816.50;5016613;28;45614;-45
2021/06/10 01:14:04;;;;;;;;;10.75;10.75;;;;;27.37;42.01;101810.13;5016772;28;45878;-47
2021/06/10 01:16:32;;;;;;;;;9.25;9.25;;;;;27.36;42.06;101821.31;5016758;28;45373;-44
2021/06/10 01:19:07;;;;;;;;;8.00;8.00;;;;;27.34;42.30;101816.00;5016782;28;45366;-48
2021/06/10 01:21:36;;;;;;;;;11.00;8.75;;;;;27.35;42.14;101814.97;5016334;28;46027;-47
2021/06/10 01:24:11;;;;;;;;;10.00;7.75;;;;;27.34;42.46;101820.66;5016255;28;45337;-45
2021/06/10 01:26:46;;;;;;;;;7.75;7.75;;;;;27.32;42.29;101808.97;5015134;28;45511;-46
2021/06/10 01:29:16;;;;;;;;;6.50;6.50;;;;;27.32;42.56;101820.00;5016723;28;45285;-48
2021/06/10 01:31:42;;;;;;;;;8.25;8.25;;;;;27.31;42.78;101812.78;5015103;28;45689;-47
2021/06/10 01:34:10;;;;;;;;;8.50;8.50;;;;;27.30;42.56;101806.38;5015259;28;45608;-46
2021/06/10 01:36:40;;;;;;;;;9.00;9.00;;;;;27.30;42.36;101811.91;5015047;28;45369;-48
2021/06/10 01:39:09;;;;;;;;;9.00;7.75;;;;;27.28;42.84;101798.31;5016674;28;45265;-45
2021/06/10 01:41:35;;;;;;;;;7.75;7.50;;;;;27.28;42.77;101801.06;5016097;28;45316;-48
2021/06/10 01:44:03;;;;;;;;;7.75;7.75;;;;;27.26;42.46;101800.38;5014833;28;45282;-46
2021/06/10 01:46:31;;;;;;;;;7.75;7.75;;;;;27.26;42.86;101800.38;5016599;28;45407;-49
2021/06/10 01:48:57;;;;;;;;;8.25;8.25;;;;;27.24;42.92;101796.13;5006786;28;45471;-49
2021/06/10 01:51:26;;;;;;;;;8.50;8.50;;;;;27.24;43.17;101798.88;4996248;28;45393;-49
2021/06/10 01:53:53;;;;;;;;;8.50;8.50;;;;;27.25;43.26;101795.06;5014107;28;45480;-47
2021/06/10 01:56:23;;;;;;;;;8.75;8.75;;;;;27.24;43.14;101796.13;5013522;28;45505;-47
2021/06/10 01:58:51;;;;;;;;;7.25;7.25;;;;;27.23;43.23;101799.91;5016240;28;45139;-44
2021/06/10 02:01:18;;;;;;;;;8.00;8.00;;;;;27.22;42.67;101801.78;5016047;28;45288;-48
2021/06/10 02:03:46;;;;;;;;;8.25;6.75;;;;;27.20;43.19;101795.59;5016019;28;45412;-50
2021/06/10 02:06:13;;;;;;;;;6.50;6.50;;;;;27.19;43.21;101791.13;5014665;28;45410;-47
2021/06/10 02:08:40;;;;;;;;;8.50;8.50;;;;;27.19;43.28;101802.16;5013904;28;45380;-51
2021/06/10 02:11:06;;;;;;;;;8.25;7.50;;;;;27.19;43.16;101801.31;4998784;28;45375;-44
2021/06/10 02:13:33;;;;;;;;;9.50;8.25;;;;;27.18;43.20;101794.09;5014766;28;45309;-47
2021/06/10 02:16:04;;;;;;;;;7.00;6.50;;;;;27.18;42.98;101794.97;5016131;28;45465;-47
2021/06/10 02:18:30;;;;;;;;;7.25;7.25;;;;;27.15;42.84;101778.78;5016006;28;45438;-46
2021/06/10 02:20:59;;;;;;;;;10.25;8.50;;;;;27.16;43.46;101785.13;5015483;28;45242;-47
2021/06/10 02:23:25;;;;;;;;;6.00;6.00;;;;;27.13;42.81;101784.47;5015595;28;45253;-48
2021/06/10 02:25:50;;;;;;;;;6.25;6.25;;;;;27.13;43.04;101781.69;5015905;28;45262;-48
2021/06/10 02:28:16;;;;;;;;;9.00;9.00;;;;;27.11;43.13;101783.78;5016121;28;45305;-47
2021/06/10 02:30:42;;;;;;;;;6.75;6.00;;;;;27.12;43.17;101787.41;5015715;28;45933;-47
2021/06/10 02:33:07;;;;;;;;;9.00;9.00;;;;;27.09;43.76;101783.13;5014302;28;45175;-45
2021/06/10 02:35:33;;;;;;;;;8.00;8.00;;;;;27.11;43.06;101796.72;5014298;28;45296;-45
2021/06/10 02:38:01;;;;;;;;;12.00;7.00;;;;;27.09;43.72;101793.28;5015809;28;45400;-48
2021/06/10 02:40:32;;;;;;;;;9.00;9.00;;;;;27.10;43.25;101789.50;5015632;28;45480;-47
2021/06/10 02:43:02;;;;;;;;;8.25;8.25;;;;;27.09;43.67;101783.13;5014211;28;45920;-48
2021/06/10 02:45:28;;;;;;;;;8.00;7.75;;;;;27.08;43.29;101786.94;4994699;28;45311;-48
2021/06/10 02:47:56;;;;;;;;;10.00;9.00;;;;;27.08;43.50;101789.69;4995940;28;45294;-46
2021/06/10 02:50:23;;;;;;;;;6.75;6.75;;;;;27.07;43.46;101790.72;4995353;28;46019;-48
2021/06/10 02:52:50;;;;;;;;;8.00;8.00;;;;;27.07;43.17;101787.09;5014470;28;45519;-47
2021/06/10 02:55:18;;;;;;;;;9.75;8.25;;;;;27.06;43.09;101788.13;5015516;28;45468;-49
2021/06/10 02:57:55;;;;;;;;;7.00;7.00;;;;;27.05;43.68;101786.41;5015527;28;45580;-47
2021/06/10 03:00:25;;;;;;;;;8.50;7.00;;;;;27.03;43.25;101783.84;5014956;28;46065;-47
2021/06/10 03:02:51;;;;;;;;;8.25;6.75;;;;;27.04;43.70;101790.25;5015106;28;45446;-45
2021/06/10 03:05:18;;;;;;;;;7.00;6.50;;;;;27.03;43.37;101794.88;5013904;28;45352;-49
2021/06/10 03:07:46;;;;;;;;;8.00;8.00;;;;;27.02;43.53;101790.41;5018317;28;45404;-46
2021/06/10 03:10:12;;;;;;;;;6.00;6.00;;;;;27.01;43.34;101791.44;5003461;28;45424;-49
2021/06/10 03:12:40;;;;;;;;;11.00;7.00;;;;;27.00;43.12;101795.25;5016677;28;45443;-46
2021/06/10 03:15:08;;;;;;;;;6.50;5.50;;;;;27.00;43.74;101789.72;5017451;28;45463;-48
2021/06/10 03:17:34;;;;;;;;;7.00;7.00;;;;;26.98;43.74;101789.94;5017328;28;45317;-48
2021/06/10 03:20:01;;;;;;;;;8.25;7.50;;;;;26.98;43.66;101789.06;5016901;28;45878;-50
2021/06/10 03:22:27;;;;;;;;;8.50;7.50;;;;;26.97;43.71;101788.22;5016915;28;45261;-46
2021/06/10 03:24:53;;;;;;;;;8.75;7.00;;;;;26.97;43.75;101793.72;5018425;28;45294;-49
2021/06/10 03:27:20;;;;;;;;;7.00;7.00;;;;;26.96;43.11;101788.41;5018635;28;45147;-46
2021/06/10 03:29:46;;;;;;;;;6.25;5.75;;;;;26.96;43.57;101785.66;5018033;28;45392;-47
2021/06/10 03:32:13;;;;;;;;;8.50;7.00;;;;;26.95;43.36;101778.44;5018416;28;45418;-44
2021/06/10 03:34:39;;;;;;;;;7.00;5.50;;;;;26.94;43.54;101783.06;5018271;28;45422;-44
2021/06/10 03:37:05;;;;;;;;;8.00;8.00;;;;;26.93;43.20;101778.59;5018503;28;45410;-46
2021/06/10 03:39:31;;;;;;;;;6.25;6.25;;;;;26.92;43.26;101787.88;5018244;28;46049;-46
2021/06/10 03:41:59;;;;;;;;;5.00;5.00;;;;;26.92;43.80;101792.56;5018256;28;45745;-49
2021/06/10 03:44:27;;;;;;;;;8.00;7.50;;;;;26.92;43.31;101781.53;5005103;28;45449;-47
2021/06/10 03:46:55;;;;;;;;;9.75;8.00;;;;;26.92;43.10;101776.03;4998233;28;45470;-47
2021/06/10 03:49:21;;;;;;;;;7.75;7.75;;;;;26.91;43.40;101775.16;5001988;28;46171;-50
2021/06/10 03:51:51;;;;;;;;;8.00;7.00;;;;;26.91;43.61;101766.03;5017916;28;45480;-47
2021/06/10 03:54:19;;;;;;;;;7.25;7.25;;;;;26.91;43.09;101771.56;5018312;28;45271;-48
2021/06/10 03:56:44;;;;;;;;;7.00;7.00;;;;;26.87;43.53;101768.31;5018117;28;45377;-48
2021/06/10 03:59:10;;;;;;;;;6.50;6.50;;;;;26.88;43.10;101772.78;5016273;28;46981;-47
2021/06/10 04:01:35;;;;;;;;;5.50;5.50;;;;;26.89;43.41;101770.88;5016299;28;45352;-48
2021/06/10 04:04:01;;;;;;;;;6.00;6.00;;;;;26.88;43.63;101770.03;5017919;28;45381;-46
2021/06/10 04:06:32;;;;;;;;;9.00;7.50;;;;;26.87;43.75;101768.31;5017916;28;45396;-50
2021/06/10 04:09:00;;;;;;;;;7.75;7.50;;;;;26.86;43.74;101772.13;5012842;28;45575;-48
2021/06/10 04:11:25;;;;;;;;;5.75;5.75;;;;;26.86;43.12;101768.47;4998093;28;45670;-49
2021/06/10 04:13:51;;;;;;;;;6.75;5.75;;;;;26.81;43.60;101766.28;4996698;28;45313;-50
2021/06/10 04:16:16;;;;;;;;;5.50;5.50;;;;;26.84;43.09;101772.28;4996565;28;45261;-51
2021/06/10 04:18:42;;;;;;;;;5.75;5.25;;;;;26.84;43.69;101777.78;4996851;28;46205;-44
2021/06/10 04:21:07;;;;;;;;;6.00;6.00;;;;;26.82;43.31;101771.63;5014624;28;45426;-47
2021/06/10 04:23:33;;;;;;;;;5.75;5.75;;;;;26.82;43.39;101774.38;5017680;28;45277;-47
2021/06/10 04:25:58;;;;;;;;;5.50;5.50;;;;;26.83;43.64;101787.09;5017614;28;45389;-48
2021/06/10 04:28:24;;;;;;;;;9.00;8.00;;;;;26.81;43.54;101780.94;5017483;28;45264;-45
2021/06/10 04:30:49;;;;;;;;;7.50;6.75;;;;;26.79;43.04;101774.75;5017205;28;45345;-49
2021/06/10 04:33:15;;;;;;;;;5.00;5.00;;;;;26.79;43.63;101787.63;5017646;28;45241;-47
2021/06/10 04:35:40;;;;;;;;;6.00;5.50;;;;;26.78;43.16;101784.00;5017508;28;45357;-48
2021/06/10 04:38:06;;;;;;;;;7.00;7.00;;;;;26.77;43.05;101785.06;5017245;28;45321;-48
2021/06/10 04:40:32;;;;;;;;;6.00;6.00;;;;;26.78;42.89;101784.00;5017005;28;45289;-44
2021/06/10 04:42:57;;;;;;;;;5.00;5.00;;;;;26.77;43.17;101787.81;5014307;28;45424;-46
2021/06/10 04:45:23;;;;;;;;;6.50;6.50;;;;;26.75;43.37;101789.03;4997100;28;45246;-46
2021/06/10 04:47:49;;;;;;;;;6.25;5.50;;;;;26.76;43.15;101796.22;4996015;28;47140;-48
2021/06/10 04:50:14;;;;;;;;;5.75;5.75;;;;;26.75;43.12;101808.31;5010383;28;45345;-49
2021/06/10 04:52:40;;;;;;;;;5.25;5.25;;;;;26.74;43.29;101801.94;5017306;28;45360;-44
2021/06/10 04:55:06;;;;;;;;;4.50;4.50;;;;;26.73;43.26;101791.13;5015912;28;45497;-45
2021/06/10 04:57:33;;;;;;;;;7.00;6.00;;;;;26.73;42.91;101786.44;5015549;28;45360;-44
2021/06/10 04:59:59;;;;;;;;;6.25;6.25;;;;;26.72;43.23;101800.41;5016616;28;45342;-47
2021/06/10 05:02:24;;;;;;;;;5.75;5.75;;;;;26.71;42.69;101795.94;5015902;28;45479;-47
2021/06/10 05:04:50;;;;;;;;;4.75;4.75;;;;;26.71;42.37;101798.69;5016993;28;45454;-49
2021/06/10 05:07:15;;;;;;;;;5.00;4.75;;;;;26.69;42.85;101799.72;5016623;28;45440;-46
2021/06/10 05:09:41;;;;;;;;;5.00;5.00;;;;;26.68;42.28;101805.44;5005783;28;45468;-49
2021/06/10 05:12:07;;;;;;;;;5.00;5.00;;;;;26.68;42.63;101802.69;4995806;28;45448;-47
2021/06/10 05:14:32;;;;;;;;;4.75;4.75;;;;;26.68;42.60;101806.28;4995505;28;45446;-47
2021/06/10 05:16:58;;;;;;;;;6.00;6.00;;;;;26.67;42.18;101800.97;4995545;28;45472;-50
2021/06/10 05:19:23;;;;;;;;;5.00;5.00;;;;;26.67;42.24;101803.72;5002895;28;45419;-43
2021/06/10 05:21:49;;;;;;;;;6.25;5.00;;;;;26.66;42.00;101807.50;5015440;28;45434;-46
2021/06/10 05:24:15;;;;;;;;;4.00;4.00;;;;;26.65;41.81;101805.78;5015079;28;45620;-43
2021/06/10 05:26:41;;;;;;;;;5.25;5.25;;;;;26.65;41.79;101805.78;5016140;28;46166;-46
2021/06/10 05:29:07;;;;;;;;;4.00;4.00;;;;;26.64;42.16;101798.56;5016240;28;45391;-45
2021/06/10 05:31:33;;;;;;;;;3.50;3.50;;;;;26.64;42.13;101798.56;5016711;28;45541;-45
2021/06/10 05:33:58;;;;;;;;;3.50;3.50;;;;;26.62;42.14;101798.72;5015132;28;45467;-44
2021/06/10 05:36:24;;;;;;;;;5.75;4.00;;;;;26.62;41.67;101809.75;5016448;28;45230;-44
2021/06/10 05:38:49;;;;;;;;;4.50;4.50;;;;;26.62;41.67;101814.41;5016339;28;45479;-44
2021/06/10 05:41:15;;;;;;;;;3.00;3.00;;;;;26.60;41.80;101811.84;5015212;28;45380;-47
2021/06/10 05:43:41;;;;;;;;;3.00;2.75;;;;;26.59;41.79;101807.38;5008855;28;45290;-46
2021/06/10 05:46:06;;;;;;;;;3.75;3.75;;;;;26.59;41.28;101812.88;4996487;28;46063;-45
2021/06/10 05:48:32;;;;;;;;;4.00;4.00;;;;;26.59;41.14;101818.38;4997038;28;45439;-44
2021/06/10 05:50:57;;;;;;;;;3.00;3.00;;;;;26.60;41.48;101813.72;5016421;28;45432;-45
2021/06/10 05:53:24;;;;;;;;;4.00;3.00;;;;;26.59;41.44;101806.50;5016302;28;45312;-46
2021/06/10 05:55:50;;;;;;;;;4.00;4.00;;;;;26.59;41.27;101801.00;5016332;28;45257;-49
2021/06/10 05:58:15;;;;;;;;;3.75;3.75;;;;;26.58;41.21;101804.78;5014290;28;45226;-48
2021/06/10 06:00:41;;;;;;;;;2.25;2.25;;;;;26.57;41.16;101803.06;5014644;28;45422;-46
2021/06/10 06:03:08;;;;;;;;;4.00;3.00;;;;;26.58;41.11;101808.41;5013413;28;45542;-44
2021/06/10 06:05:35;;;;;;;;;3.75;3.75;;;;;26.57;41.07;101814.06;5013760;28;45602;-48
2021/06/10 06:08:01;;;;;;;;;3.75;3.75;;;;;26.56;41.08;101812.34;5014521;28;45490;-45
2021/06/10 06:10:29;;;;;;;;;4.50;4.50;;;;;26.56;40.85;101817.88;5014313;28;45361;-47
2021/06/10 06:12:59;;;;;;;;;4.00;3.25;;;;;26.50;40.92;101808.44;5015520;28;45475;-45
2021/06/10 06:15:25;;;;;;;;;5.75;4.00;;;;;26.56;40.86;101821.50;5014456;28;45605;-47
2021/06/10 06:17:51;;;;;;;;;4.00;4.00;;;;;26.53;40.72;101819.97;5015335;28;45373;-49
2021/06/10 06:20:19;;;;;;;;;6.00;4.25;;;;;26.54;40.80;101826.31;5016027;28;45330;-46
2021/06/10 06:22:46;;;;;;;;;6.25;3.75;;;;;26.54;40.77;101829.06;5015151;28;45317;-49
2021/06/10 06:25:13;;;;;;;;;4.75;4.75;;;;;26.53;40.05;101822.72;5015588;28;46197;-47
2021/06/10 06:27:39;;;;;;;;;3.75;3.75;;;;;26.53;40.54;101824.59;5013584;28;45510;-49
2021/06/10 06:30:07;;;;;;;;;3.50;3.00;;;;;26.52;39.91;101829.25;5014719;28;45479;-47
2021/06/10 06:32:36;;;;;;;;;5.00;3.75;;;;;26.51;39.86;101833.06;5014568;28;45264;-49
2021/06/10 06:35:06;;;;;;;;;4.00;4.00;;;;;26.51;39.79;101826.69;5015252;28;46334;-49
2021/06/10 06:37:33;;;;;;;;;4.25;4.25;;;;;26.52;40.03;101831.16;5014751;28;45374;-47
2021/06/10 06:39:59;;;;;;;;;3.00;3.00;;;;;26.50;40.04;101836.84;5015562;28;45495;-51
2021/06/10 06:42:25;;;;;;;;;3.50;3.50;;;;;26.48;39.94;101825.16;5017430;28;45358;-46
2021/06/10 06:44:51;;;;;;;;;3.00;3.00;;;;;26.48;39.70;101836.16;5017812;28;46206;-48
2021/06/10 06:47:17;;;;;;;;;4.00;2.75;;;;;26.50;39.32;101841.47;5019029;28;45384;-45
2021/06/10 06:49:42;;;;;;;;;3.50;3.50;;;;;26.49;39.76;101839.75;5018116;28;45317;-45
2021/06/10 06:52:09;;;;;;;;;5.00;5.00;;;;;26.48;39.34;101840.78;5010337;28;46043;-44
2021/06/10 06:54:36;;;;;;;;;4.00;4.00;;;;;26.47;38.27;101848.22;5017691;28;45452;-43
2021/06/10 06:57:04;;;;;;;;;6.50;4.00;;;;;26.45;38.03;101847.53;5012967;28;45443;-47
2021/06/10 06:59:30;;;;;;;;;7.00;5.00;;;;;26.40;37.87;101849.09;5018196;28;45285;-45
2021/06/10 07:01:57;;;;;;;;;6.00;5.00;;;;;26.37;37.69;101853.09;5017261;28;45367;-45
2021/06/10 07:04:25;;;;;;;;;4.25;3.50;;;;;26.37;37.53;101858.59;5017774;28;45431;-45
2021/06/10 07:06:53;;;;;;;;;6.00;5.00;;;;;26.35;37.97;101853.25;5018546;28;45797;-48
2021/06/10 07:09:19;;;;;;;;;6.50;6.00;;;;;26.33;37.87;101869.06;5018468;28;45474;-49
2021/06/10 07:11:44;;;;;;;;;3.25;3.25;;;;;26.33;37.69;101868.22;5018457;28;45460;-49
2021/06/10 07:14:10;;;;;;;;;4.50;3.50;;;;;26.31;37.78;101873.94;5016659;28;45708;-45
2021/06/10 07:16:35;;;;;;;;;5.50;3.25;;;;;26.31;37.90;101875.81;5017544;28;45389;-43
2021/06/10 07:19:01;;;;;;;;;5.00;4.00;;;;;26.30;37.33;101874.09;5016200;28;45368;-41
2021/06/10 07:21:40;;;;;;;;;2.75;2.75;;;;;26.28;37.50;101873.41;5016825;28;45614;-42
2021/06/10 07:24:06;;;;;;;;;3.00;2.00;;;;;26.29;37.96;101883.38;5018243;28;46226;-49
2021/06/10 07:26:32;;;;;;;;;9.50;6.25;;;;;26.27;38.08;101872.56;5016959;28;45487;-46
2021/06/10 07:28:57;;;;;;;;;5.00;4.00;;;;;26.26;38.03;101876.34;5015812;28;46801;-48
2021/06/10 07:31:22;;;;;;;;;5.00;3.25;;;;;26.27;37.83;101877.19;5018029;28;45503;-51
2021/06/10 07:33:48;;;;;;;;;6.25;5.00;;;;;26.25;37.75;101868.28;5017866;28;46072;-51
2021/06/10 07:36:13;;;;;;;;;5.50;3.50;;;;;26.25;37.50;101868.28;5017572;28;45488;-45
2021/06/10 07:38:39;;;;;;;;;3.25;3.25;;;;;26.22;37.52;101867.59;5017918;28;45338;-49
2021/06/10 07:41:04;;;;;;;;;3.00;3.00;;;;;26.21;37.18;101876.88;5017672;28;45750;-49
2021/06/10 07:43:30;;;;;;;;;2.75;2.75;;;;;26.21;37.86;101860.34;5017597;28;46089;-47
2021/06/10 07:45:55;;;;;;;;;3.00;2.25;;;;;26.24;37.83;101870.16;5017341;28;45476;-46
2021/06/10 07:48:21;;;;;;;;;4.00;3.25;;;;;26.26;38.01;101878.22;5015259;28;45501;-44
2021/06/10 07:50:46;;;;;;;;;5.00;4.00;;;;;26.29;37.77;101867.72;5015021;28;45447;-49
2021/06/10 07:53:12;;;;;;;;;2.75;2.75;;;;;26.34;37.29;101872.69;5016919;28;45385;-43
2021/06/10 07:55:38;;;;;;;;;3.00;3.00;;;;;26.35;37.84;101877.16;5017286;28;45326;-43
2021/06/10 07:58:04;;;;;;;;;4.00;4.00;;;;;26.38;37.89;101877.66;5014292;28;45469;-45
2021/06/10 08:00:30;;;;;;;;;3.00;3.00;;;;;26.41;37.14;101872.84;5016362;28;45354;-44
2021/06/10 08:02:58;;;;;;;;;5.25;4.00;;;;;26.41;37.59;101881.09;5013936;28;45499;-45
2021/06/10 08:05:25;;;;;;;;;4.00;2.50;;;;;26.42;37.67;101866.31;5017400;28;45348;-48
2021/06/10 08:07:52;;;;;;;;;3.00;3.00;;;;;26.46;37.40;101871.28;5017422;28;45494;-46
2021/06/10 08:10:17;;;;;;;;;5.25;3.25;;;;;26.44;37.83;101865.09;5001853;28;45259;-45
2021/06/10 08:12:43;;;;;;;;;5.00;3.00;;;;;26.46;37.75;101865.78;5001959;28;45709;-43
2021/06/10 08:15:09;;;;;;;;;5.25;5.25;;;;;26.46;37.46;101868.53;5017640;28;45549;-47
2021/06/10 08:17:35;;;;;;;;;3.00;3.00;;;;;26.48;37.93;101865.56;5016277;28;45256;-48
2021/06/10 08:20:04;;;;;;;;;3.00;3.00;;;;;26.48;38.03;101865.56;5017375;28;45554;-46
2021/06/10 08:22:29;;;;;;;;;6.00;4.25;;;;;26.50;38.00;101869.88;5017356;28;46116;-44
2021/06/10 08:24:55;;;;;;;;;5.00;3.00;;;;;26.51;37.67;101867.97;5017017;28;45403;-45
2021/06/10 08:27:26;;;;;;;;;3.50;3.50;;;;;26.50;37.49;101864.38;5015324;28;45696;-45
2021/06/10 08:29:53;;;;;;;;;6.50;4.00;;;;;26.50;37.73;101867.13;5016057;28;45403;-43
2021/06/10 08:32:18;;;;;;;;;6.00;4.75;;;;;26.53;38.12;101868.66;5015487;28;46051;-46
2021/06/10 08:34:44;;;;;;;;;3.00;3.00;;;;;26.54;37.58;101868.47;5015813;28;45274;-43
2021/06/10 08:37:10;;;;;;;;;5.75;5.75;;;;;26.54;38.03;101857.47;5015670;28;45271;-44
2021/06/10 08:39:35;;;;;;;;;3.50;2.75;;;;;26.57;37.61;101858.16;5017084;28;45418;-46
2021/06/10 08:42:01;;;;;;;;;4.75;4.75;;;;;26.56;37.48;101856.41;5015696;28;47805;-44
2021/06/10 08:44:28;;;;;;;;;5.00;4.50;;;;;26.57;37.67;101853.50;5001834;28;45590;-46
2021/06/10 08:46:55;;;;;;;;;4.00;4.00;;;;;26.61;37.97;101857.59;5001164;28;45237;-45
2021/06/10 08:49:21;;;;;;;;;5.75;4.75;;;;;26.61;37.39;101854.84;5013566;28;45494;-49
2021/06/10 08:51:48;;;;;;;;;4.00;4.00;;;;;26.61;37.86;101852.09;5016656;28;45407;-43
2021/06/10 08:54:14;;;;;;;;;4.00;4.00;;;;;26.63;38.00;101844.50;5016485;28;46233;-46
2021/06/10 08:56:41;;;;;;;;;6.00;4.00;;;;;26.65;37.81;101850.69;5016878;28;45343;-45
2021/06/10 08:59:09;;;;;;;;;4.00;4.00;;;;;26.64;37.49;101842.63;5015125;28;45636;-47
2021/06/10 09:01:35;;;;;;;;;3.75;3.00;;;;;26.67;37.22;101843.13;5016678;28;45438;-44
2021/06/10 09:04:01;;;;;;;;;4.50;4.50;;;;;26.69;37.50;101853.94;5015696;28;45631;-46
2021/06/10 09:06:26;;;;;;;;;5.25;5.25;;;;;26.70;37.47;101850.16;5015162;28;45309;-44
2021/06/10 09:08:56;;;;;;;;;6.00;5.00;;;;;26.73;37.75;101848.97;5015171;28;45484;-42
2021/06/10 09:11:26;;;;;;;;;4.50;4.50;;;;;26.75;38.13;101838.63;5016805;28;45371;-44
2021/06/10 09:13:57;;;;;;;;;5.75;5.75;;;;;26.77;38.06;101837.41;5014755;28;45761;-45
2021/06/10 09:16:34;;;;;;;;;7.00;7.00;;;;;26.79;38.29;101832.59;5016963;28;45500;-46
2021/06/10 09:19:05;;;;;;;;;4.25;4.25;;;;;26.83;38.21;101836.69;5016807;28;45304;-45
2021/06/10 09:21:34;;;;;;;;;4.50;4.25;;;;;26.87;37.76;101839.09;5016186;28;46058;-45
2021/06/10 09:24:14;;;;;;;;;7.50;5.00;;;;;26.88;38.18;101832.53;5016600;28;45499;-44
2021/06/10 09:26:40;;;;;;;;;6.50;5.25;;;;;26.93;37.65;101832.84;5016652;28;45184;-47
2021/06/10 09:29:07;;;;;;;;;8.00;6.25;;;;;26.95;37.69;101834.38;5015263;28;45255;-48
2021/06/10 09:31:35;;;;;;;;;4.75;3.75;;;;;26.98;37.75;101835.91;5005446;28;46437;-43
2021/06/10 09:34:07;;;;;;;;;6.00;4.75;;;;;27.01;37.67;101829.19;5008827;28;45449;-45
2021/06/10 09:36:47;;;;;;;;;6.75;6.25;;;;;27.02;37.47;101833.66;5014215;28;45512;-43
2021/06/10 09:39:23;;;;;;;;;5.25;5.25;;;;;27.04;37.86;101834.34;5015638;28;45388;-45
2021/06/10 09:42:04;;;;;;;;;5.75;5.75;;;;;27.06;37.55;101838.63;5015331;28;46194;-44
2021/06/10 09:44:40;;;;;;;;;6.25;6.00;;;;;27.07;37.47;101843.09;5001385;28;45452;-45
2021/06/10 09:47:08;;;;;;;;;5.25;5.25;;;;;27.08;37.44;101838.44;4994440;28;45434;-43
2021/06/10 09:49:35;;;;;;;;;6.00;6.00;;;;;27.09;37.70;101834.63;4995589;28;45475;-45
2021/06/10 09:52:02;;;;;;;;;5.25;5.25;;;;;27.10;37.39;101830.84;4995359;28;45450;-43
2021/06/10 09:54:47;;;;;;;;;6.25;5.50;;;;;27.13;37.19;101831.31;5008671;28;45558;-43
2021/06/10 09:57:14;;;;;;;;;6.00;5.75;;;;;27.14;37.29;101837.72;4995243;28;45507;-44
2021/06/10 09:59:53;;;;;;;;;6.50;6.50;;;;;27.16;36.98;101840.28;5002884;28;45388;-45
2021/06/10 10:02:25;;;;;;;;;6.00;5.00;;;;;27.18;37.38;101832.69;5013489;28;46467;-43
2021/06/10 10:05:08;;;;;;;;;7.00;6.00;;;;;27.20;37.63;101842.47;5014153;28;45441;-44
2021/06/10 10:07:37;;;;;;;;;6.25;6.25;;;;;27.21;36.95;101835.06;5014962;28;45412;-47
2021/06/10 10:10:07;;;;;;;;;6.00;6.00;;;;;27.25;37.00;101839.19;5013573;28;45605;-43
2021/06/10 10:12:39;;;;;;;;;7.00;6.25;;;;;27.27;37.63;101842.59;5013776;28;46052;-46
2021/06/10 10:15:06;;;;;;;;;6.25;4.75;;;;;27.28;37.71;101833.28;5005119;28;45789;-43
2021/06/10 10:17:33;;;;;;;;;4.75;4.75;;;;;27.31;37.66;101838.44;5017050;28;45431;-44
2021/06/10 10:19:59;;;;;;;;;4.50;4.50;;;;;27.33;37.49;101836.34;5018916;28;45614;-43
2021/06/10 10:22:30;;;;;;;;;6.00;6.00;;;;;27.36;36.70;101838.75;5014266;28;46256;-43
2021/06/10 10:24:59;;;;;;;;;3.75;3.75;;;;;27.39;37.11;101840.25;5018326;28;45258;-43
2021/06/10 10:27:25;;;;;;;;;4.00;4.00;;;;;27.40;37.25;101836.47;5000857;28;45973;-43
2021/06/10 10:29:53;;;;;;;;;5.00;4.25;;;;;27.41;36.91;101832.66;5018552;28;45601;-43
2021/06/10 10:32:30;;;;;;;;;4.00;4.00;;;;;27.41;37.36;101828.00;5010039;28;45935;-46
2021/06/10 10:35:22;;;;;;;;;5.50;5.50;;;;;27.43;37.31;101828.66;5010331;28;45889;-45
2021/06/10 10:37:57;;;;;;;;;3.50;3.50;;;;;27.44;37.16;101822.13;5017748;28;45371;-43
2021/06/10 10:40:31;;;;;;;;;5.75;4.75;;;;;27.46;36.95;101823.88;5018612;28;45298;-44
2021/06/10 10:43:12;;;;;;;;;4.25;4.25;;;;;27.49;36.96;101823.50;5016674;28;46046;-43
2021/06/10 10:45:46;;;;;;;;;6.00;5.50;;;;;27.49;36.94;101816.06;4996921;28;45460;-43
2021/06/10 10:48:19;;;;;;;;;6.00;5.25;;;;;27.53;37.33;101817.41;5011401;28;45563;-44
2021/06/10 10:50:48;;;;;;;;;6.00;5.50;;;;;27.55;37.32;101820.84;5018084;28;45305;-44
2021/06/10 10:53:26;;;;;;;;;6.50;6.00;;;;;27.58;36.91;101822.38;5017472;28;46365;-45
2021/06/10 10:56:09;;;;;;;;;6.00;6.00;;;;;27.60;37.11;101817.53;5018108;28;45335;-47
2021/06/10 10:58:40;;;;;;;;;6.00;6.00;;;;;27.62;37.24;101807.16;5017864;28;45484;-43
2021/06/10 11:01:10;;;;;;;;;5.00;4.75;;;;;27.61;37.33;101799.94;5016980;28;45573;-45
2021/06/10 11:03:41;;;;;;;;;7.00;6.00;;;;;27.65;37.06;101811.44;5015991;28;47217;-45
2021/06/10 11:06:40;;;;;;;;;6.00;6.00;;;;;27.67;36.79;101809.34;5016831;28;45321;-43
2021/06/10 11:09:16;;;;;;;;;5.50;5.50;;;;;27.69;36.71;101807.28;5013769;28;45475;-43
2021/06/10 11:12:05;;;;;;;;;5.75;5.75;;;;;27.71;36.60;101802.44;5016325;28;45551;-46
2021/06/10 11:14:42;;;;;;;;;5.75;5.75;;;;;27.74;36.71;101807.56;5015039;28;45425;-44
2021/06/10 11:17:17;;;;;;;;;5.00;5.00;;;;;27.77;37.13;101809.94;5016765;28;45585;-43
2021/06/10 11:20:17;;;;;;;;;4.00;4.00;;;;;27.79;36.47;101807.84;5016543;28;45459;-44
2021/06/10 11:22:49;;;;;;;;;5.00;5.00;;;;;27.83;36.87;101808.31;5010165;28;45448;-44
2021/06/10 11:25:44;;;;;;;;;5.50;4.50;;;;;27.85;36.28;101795.19;5016354;28;45328;-45
2021/06/10 11:28:21;;;;;;;;;6.00;5.00;;;;;27.89;36.43;101788.25;5008044;28;45664;-45